sensor_id;sensor_type;location;lat;lon;timestamp;temperature;humidity
18139;DHT22;9195;53.176;9.486;2022-11-20T00:00:55;1.50;99.90
18139;DHT22;9195;53.176;9.486;2022-11-20T00:03:21;1.50;99.90
18139;DHT22;9195;53.176;9.486;2022-11-20T00:05:46;1.50;99.90
18139;DHT22;9195;53.176;9.486;2022-11-20T00:08:12;1.50;99.90
18139;DHT22;9195;53.176;9.486;2022-11-20T00:10:39;1.60;99.90
18139;DHT22;9195;53.176;9.486;2022-11-20T00:13:06;1.60;99.90
18139;DHT22;9195;53.176;9.486;2022-11-20T00:15:32;1.60;99.90
18139;DHT22;9195;53.176;9.486;2022-11-20T00:17:58;1.70;99.90
18139;DHT22;9195;53.176;9.486;2022-11-20T00:20:23;1.60;99.90
18139;DHT22;9195;53.176;9.486;2022-11-20T00:22:50;1.60;99.90
18139;DHT22;9195;53.176;9.486;2022-11-20T00:25:16;1.70;99.90
18139;DHT22;9195;53.176;9.486;2022-11-20T00:27:41;1.60;99.90
18139;DHT22;9195;53.176;9.486;2022-11-20T00:30:07;1.70;99.90
18139;DHT22;9195;53.176;9.486;2022-11-20T00:32:33;1.70;99.90
18139;DHT22;9195;53.176;9.486;2022-11-20T00:34:58;1.70;99.90
18139;DHT22;9195;53.176;9.486;2022-11-20T00:37:24;1.70;99.90
18139;DHT22;9195;53.176;9.486;2022-11-20T00:39:50;1.70;99.90
18139;DHT22;9195;53.176;9.486;2022-11-20T00:42:15;1.70;99.90
18139;DHT22;9195;53.176;9.486;2022-11-20T00:44:41;1.70;99.90
18139;DHT22;9195;53.176;9.486;2022-11-20T00:47:07;1.70;99.90
18139;DHT22;9195;53.176;9.486;2022-11-20T00:49:32;1.70;99.90
18139;DHT22;9195;53.176;9.486;2022-11-20T00:51:58;1.70;99.90
18139;DHT22;9195;53.176;9.486;2022-11-20T00:54:23;1.70;99.90
18139;DHT22;9195;53.176;9.486;2022-11-20T00:56:49;1.80;99.90
18139;DHT22;9195;53.176;9.486;2022-11-20T00:59:15;1.70;99.90
18139;DHT22;9195;53.176;9.486;2022-11-20T01:01:40;1.70;99.90
18139;DHT22;9195;53.176;9.486;2022-11-20T01:04:06;1.70;99.90
18139;DHT22;9195;53.176;9.486;2022-11-20T01:06:34;1.60;99.90
18139;DHT22;9195;53.176;9.486;2022-11-20T01:09:07;1.70;99.90
18139;DHT22;9195;53.176;9.486;2022-11-20T01:11:35;1.70;99.90
18139;DHT22;9195;53.176;9.486;2022-11-20T01:14:04;1.70;99.90
18139;DHT22;9195;53.176;9.486;2022-11-20T01:16:38;1.70;99.90
18139;DHT22;9195;53.176;9.486;2022-11-20T01:19:06;1.60;99.90
18139;DHT22;9195;53.176;9.486;2022-11-20T01:21:35;1.60;99.90
18139;DHT22;9195;53.176;9.486;2022-11-20T01:24:01;1.60;99.90
18139;DHT22;9195;53.176;9.486;2022-11-20T01:26:30;1.50;99.90
18139;DHT22;9195;53.176;9.486;2022-11-20T01:28:56;1.50;99.90
18139;DHT22;9195;53.176;9.486;2022-11-20T01:31:27;1.60;99.90
18139;DHT22;9195;53.176;9.486;2022-11-20T01:33:55;1.60;99.90
18139;DHT22;9195;53.176;9.486;2022-11-20T01:36:23;1.60;99.90
18139;DHT22;9195;53.176;9.486;2022-11-20T01:38:56;1.60;99.90
18139;DHT22;9195;53.176;9.486;2022-11-20T01:41:23;1.60;99.90
18139;DHT22;9195;53.176;9.486;2022-11-20T01:44:11;1.60;99.90
18139;DHT22;9195;53.176;9.486;2022-11-20T01:46:38;1.50;99.90
18139;DHT22;9195;53.176;9.486;2022-11-20T01:49:20;1.60;99.90
18139;DHT22;9195;53.176;9.486;2022-11-20T01:52:00;1.50;99.90
18139;DHT22;9195;53.176;9.486;2022-11-20T01:54:43;1.50;99.90
18139;DHT22;9195;53.176;9.486;2022-11-20T01:57:11;1.50;99.90
18139;DHT22;9195;53.176;9.486;2022-11-20T01:59:44;1.50;99.90
18139;DHT22;9195;53.176;9.486;2022-11-20T02:02:11;1.60;99.90
18139;DHT22;9195;53.176;9.486;2022-11-20T02:04:37;1.60;99.90
18139;DHT22;9195;53.176;9.486;2022-11-20T02:07:04;1.70;99.90
18139;DHT22;9195;53.176;9.486;2022-11-20T02:09:30;1.70;99.90
18139;DHT22;9195;53.176;9.486;2022-11-20T02:11:57;1.60;99.90
18139;DHT22;9195;53.176;9.486;2022-11-20T02:14:24;1.60;99.90
18139;DHT22;9195;53.176;9.486;2022-11-20T02:16:50;1.50;99.90
18139;DHT22;9195;53.176;9.486;2022-11-20T02:19:26;1.50;99.90
18139;DHT22;9195;53.176;9.486;2022-11-20T02:22:09;1.40;99.90
18139;DHT22;9195;53.176;9.486;2022-11-20T02:24:37;1.30;99.90
18139;DHT22;9195;53.176;9.486;2022-11-20T02:27:11;1.30;99.90
18139;DHT22;9195;53.176;9.486;2022-11-20T02:29:47;1.30;99.90
18139;DHT22;9195;53.176;9.486;2022-11-20T02:32:28;1.30;99.90
18139;DHT22;9195;53.176;9.486;2022-11-20T02:34:54;1.20;99.90
18139;DHT22;9195;53.176;9.486;2022-11-20T02:37:21;1.20;99.90
18139;DHT22;9195;53.176;9.486;2022-11-20T02:39:49;1.00;99.90
18139;DHT22;9195;53.176;9.486;2022-11-20T02:42:15;1.10;99.90
18139;DHT22;9195;53.176;9.486;2022-11-20T02:44:41;1.10;99.90
18139;DHT22;9195;53.176;9.486;2022-11-20T02:47:06;1.00;99.90
18139;DHT22;9195;53.176;9.486;2022-11-20T02:49:32;1.00;99.90
18139;DHT22;9195;53.176;9.486;2022-11-20T02:51:58;1.00;99.90
18139;DHT22;9195;53.176;9.486;2022-11-20T02:54:25;1.00;99.90
18139;DHT22;9195;53.176;9.486;2022-11-20T02:56:51;1.00;99.90
18139;DHT22;9195;53.176;9.486;2022-11-20T02:59:16;1.00;99.90
18139;DHT22;9195;53.176;9.486;2022-11-20T03:01:42;1.00;99.90
18139;DHT22;9195;53.176;9.486;2022-11-20T03:04:08;1.00;99.90
18139;DHT22;9195;53.176;9.486;2022-11-20T03:06:33;1.00;99.90
18139;DHT22;9195;53.176;9.486;2022-11-20T03:08:59;1.10;99.90
18139;DHT22;9195;53.176;9.486;2022-11-20T03:11:25;1.10;99.90
18139;DHT22;9195;53.176;9.486;2022-11-20T03:13:50;1.10;99.90
18139;DHT22;9195;53.176;9.486;2022-11-20T03:16:19;1.10;99.90
18139;DHT22;9195;53.176;9.486;2022-11-20T03:18:44;1.10;99.90
18139;DHT22;9195;53.176;9.486;2022-11-20T03:21:11;1.10;99.90
18139;DHT22;9195;53.176;9.486;2022-11-20T03:23:37;1.10;99.90
18139;DHT22;9195;53.176;9.486;2022-11-20T03:26:17;1.20;99.90
18139;DHT22;9195;53.176;9.486;2022-11-20T03:28:49;1.20;99.90
18139;DHT22;9195;53.176;9.486;2022-11-20T03:31:16;1.20;99.90
18139;DHT22;9195;53.176;9.486;2022-11-20T03:33:43;1.20;99.90
18139;DHT22;9195;53.176;9.486;2022-11-20T03:36:13;1.20;99.90
18139;DHT22;9195;53.176;9.486;2022-11-20T03:38:40;1.20;99.90
18139;DHT22;9195;53.176;9.486;2022-11-20T03:41:10;1.10;99.90
18139;DHT22;9195;53.176;9.486;2022-11-20T03:43:36;1.10;99.90
18139;DHT22;9195;53.176;9.486;2022-11-20T03:46:03;1.10;99.90
18139;DHT22;9195;53.176;9.486;2022-11-20T03:48:28;1.10;99.90
18139;DHT22;9195;53.176;9.486;2022-11-20T03:51:14;1.10;99.90
18139;DHT22;9195;53.176;9.486;2022-11-20T03:53:41;1.20;99.90
18139;DHT22;9195;53.176;9.486;2022-11-20T03:56:08;1.20;99.90
18139;DHT22;9195;53.176;9.486;2022-11-20T03:58:35;1.20;99.90
18139;DHT22;9195;53.176;9.486;2022-11-20T04:01:09;1.20;99.90
18139;DHT22;9195;53.176;9.486;2022-11-20T04:03:37;1.20;99.90
18139;DHT22;9195;53.176;9.486;2022-11-20T04:06:05;1.10;99.90
18139;DHT22;9195;53.176;9.486;2022-11-20T04:08:31;1.10;99.90
18139;DHT22;9195;53.176;9.486;2022-11-20T04:11:20;1.20;99.90
18139;DHT22;9195;53.176;9.486;2022-11-20T04:13:48;1.10;99.90
18139;DHT22;9195;53.176;9.486;2022-11-20T04:16:14;1.10;99.90
18139;DHT22;9195;53.176;9.486;2022-11-20T04:18:40;1.10;99.90
18139;DHT22;9195;53.176;9.486;2022-11-20T04:21:06;1.10;99.90
18139;DHT22;9195;53.176;9.486;2022-11-20T04:23:32;1.20;99.90
18139;DHT22;9195;53.176;9.486;2022-11-20T04:26:02;1.20;99.90
18139;DHT22;9195;53.176;9.486;2022-11-20T04:28:28;1.20;99.90
18139;DHT22;9195;53.176;9.486;2022-11-20T04:30:54;1.10;99.90
18139;DHT22;9195;53.176;9.486;2022-11-20T04:33:20;1.10;99.90
18139;DHT22;9195;53.176;9.486;2022-11-20T04:35:46;1.10;99.90
18139;DHT22;9195;53.176;9.486;2022-11-20T04:38:13;1.20;99.90
18139;DHT22;9195;53.176;9.486;2022-11-20T04:40:38;1.20;99.90
18139;DHT22;9195;53.176;9.486;2022-11-20T04:43:04;1.30;99.90
18139;DHT22;9195;53.176;9.486;2022-11-20T04:45:29;1.20;99.90
18139;DHT22;9195;53.176;9.486;2022-11-20T04:47:55;1.30;99.90
18139;DHT22;9195;53.176;9.486;2022-11-20T04:50:20;1.20;99.90
18139;DHT22;9195;53.176;9.486;2022-11-20T04:52:46;1.20;99.90
18139;DHT22;9195;53.176;9.486;2022-11-20T04:55:12;1.30;99.90
18139;DHT22;9195;53.176;9.486;2022-11-20T04:57:37;1.30;99.90
18139;DHT22;9195;53.176;9.486;2022-11-20T05:00:03;1.30;99.90
18139;DHT22;9195;53.176;9.486;2022-11-20T05:02:31;1.30;99.90
18139;DHT22;9195;53.176;9.486;2022-11-20T05:04:57;1.20;99.90
18139;DHT22;9195;53.176;9.486;2022-11-20T05:07:22;1.20;99.90
18139;DHT22;9195;53.176;9.486;2022-11-20T05:09:48;1.20;99.90
18139;DHT22;9195;53.176;9.486;2022-11-20T05:12:14;1.20;99.90
18139;DHT22;9195;53.176;9.486;2022-11-20T05:14:39;1.30;99.90
18139;DHT22;9195;53.176;9.486;2022-11-20T05:17:05;1.30;99.90
18139;DHT22;9195;53.176;9.486;2022-11-20T05:19:30;1.30;99.90
18139;DHT22;9195;53.176;9.486;2022-11-20T05:21:56;1.30;99.90
18139;DHT22;9195;53.176;9.486;2022-11-20T05:24:22;1.30;99.90
18139;DHT22;9195;53.176;9.486;2022-11-20T05:26:47;1.40;99.90
18139;DHT22;9195;53.176;9.486;2022-11-20T05:29:13;1.30;99.90
18139;DHT22;9195;53.176;9.486;2022-11-20T05:31:40;1.40;99.90
18139;DHT22;9195;53.176;9.486;2022-11-20T05:34:06;1.40;99.90
18139;DHT22;9195;53.176;9.486;2022-11-20T05:36:32;1.30;99.90
18139;DHT22;9195;53.176;9.486;2022-11-20T05:38:58;1.30;99.90
18139;DHT22;9195;53.176;9.486;2022-11-20T05:41:24;1.30;99.90
18139;DHT22;9195;53.176;9.486;2022-11-20T05:43:50;1.30;99.90
18139;DHT22;9195;53.176;9.486;2022-11-20T05:46:18;1.30;99.90
18139;DHT22;9195;53.176;9.486;2022-11-20T05:48:45;1.30;99.90
18139;DHT22;9195;53.176;9.486;2022-11-20T05:51:13;1.30;99.90
18139;DHT22;9195;53.176;9.486;2022-11-20T05:53:39;1.20;99.90
18139;DHT22;9195;53.176;9.486;2022-11-20T05:56:08;1.20;99.90
18139;DHT22;9195;53.176;9.486;2022-11-20T05:58:35;1.30;99.90
18139;DHT22;9195;53.176;9.486;2022-11-20T06:01:16;1.30;99.90
18139;DHT22;9195;53.176;9.486;2022-11-20T06:03:42;1.20;99.90
18139;DHT22;9195;53.176;9.486;2022-11-20T06:06:11;1.30;99.90
18139;DHT22;9195;53.176;9.486;2022-11-20T06:08:37;1.20;99.90
18139;DHT22;9195;53.176;9.486;2022-11-20T06:11:07;1.20;99.90
18139;DHT22;9195;53.176;9.486;2022-11-20T06:13:33;1.30;99.90
18139;DHT22;9195;53.176;9.486;2022-11-20T06:15:59;1.30;99.90
18139;DHT22;9195;53.176;9.486;2022-11-20T06:18:26;1.20;99.90
18139;DHT22;9195;53.176;9.486;2022-11-20T06:21:03;1.10;99.90
18139;DHT22;9195;53.176;9.486;2022-11-20T06:23:30;1.10;99.90
18139;DHT22;9195;53.176;9.486;2022-11-20T06:25:57;1.20;99.90
18139;DHT22;9195;53.176;9.486;2022-11-20T06:28:22;1.20;99.90
18139;DHT22;9195;53.176;9.486;2022-11-20T06:30:48;1.20;99.90
18139;DHT22;9195;53.176;9.486;2022-11-20T06:33:14;1.20;99.90
18139;DHT22;9195;53.176;9.486;2022-11-20T06:35:39;1.10;99.90
18139;DHT22;9195;53.176;9.486;2022-11-20T06:38:05;1.10;99.90
18139;DHT22;9195;53.176;9.486;2022-11-20T06:40:30;1.10;99.90
18139;DHT22;9195;53.176;9.486;2022-11-20T06:42:56;1.10;99.90
18139;DHT22;9195;53.176;9.486;2022-11-20T06:45:21;1.00;99.90
18139;DHT22;9195;53.176;9.486;2022-11-20T06:47:47;1.10;99.90
18139;DHT22;9195;53.176;9.486;2022-11-20T06:50:13;1.10;99.90
18139;DHT22;9195;53.176;9.486;2022-11-20T06:52:38;1.10;99.90
18139;DHT22;9195;53.176;9.486;2022-11-20T06:55:04;1.10;99.90
18139;DHT22;9195;53.176;9.486;2022-11-20T06:57:30;1.10;99.90
18139;DHT22;9195;53.176;9.486;2022-11-20T06:59:55;1.10;99.90
18139;DHT22;9195;53.176;9.486;2022-11-20T07:02:21;1.10;99.90
18139;DHT22;9195;53.176;9.486;2022-11-20T07:04:47;1.10;99.90
18139;DHT22;9195;53.176;9.486;2022-11-20T07:07:12;1.10;99.90
18139;DHT22;9195;53.176;9.486;2022-11-20T07:09:38;1.10;99.90
18139;DHT22;9195;53.176;9.486;2022-11-20T07:12:03;1.10;99.90
18139;DHT22;9195;53.176;9.486;2022-11-20T07:14:29;1.20;99.90
18139;DHT22;9195;53.176;9.486;2022-11-20T07:16:55;1.20;99.90
18139;DHT22;9195;53.176;9.486;2022-11-20T07:19:20;1.20;99.90
18139;DHT22;9195;53.176;9.486;2022-11-20T07:21:46;1.20;99.90
18139;DHT22;9195;53.176;9.486;2022-11-20T07:24:12;1.30;99.90
18139;DHT22;9195;53.176;9.486;2022-11-20T07:26:37;1.30;99.90
18139;DHT22;9195;53.176;9.486;2022-11-20T07:29:03;1.40;99.90
18139;DHT22;9195;53.176;9.486;2022-11-20T07:31:28;1.50;99.90
18139;DHT22;9195;53.176;9.486;2022-11-20T07:33:54;1.60;99.90
18139;DHT22;9195;53.176;9.486;2022-11-20T07:36:20;1.60;99.90
18139;DHT22;9195;53.176;9.486;2022-11-20T07:38:45;1.60;99.90
18139;DHT22;9195;53.176;9.486;2022-11-20T07:41:11;1.60;99.90
18139;DHT22;9195;53.176;9.486;2022-11-20T07:43:36;1.60;99.90
18139;DHT22;9195;53.176;9.486;2022-11-20T07:46:02;1.50;99.90
18139;DHT22;9195;53.176;9.486;2022-11-20T07:48:29;1.60;99.90
18139;DHT22;9195;53.176;9.486;2022-11-20T07:50:55;1.60;99.90
18139;DHT22;9195;53.176;9.486;2022-11-20T07:53:21;1.60;99.90
18139;DHT22;9195;53.176;9.486;2022-11-20T07:55:48;1.70;99.90
18139;DHT22;9195;53.176;9.486;2022-11-20T07:58:13;1.70;99.90
18139;DHT22;9195;53.176;9.486;2022-11-20T08:00:40;1.70;99.90
18139;DHT22;9195;53.176;9.486;2022-11-20T08:03:06;1.70;99.90
18139;DHT22;9195;53.176;9.486;2022-11-20T08:05:31;1.70;99.90
18139;DHT22;9195;53.176;9.486;2022-11-20T08:07:57;1.90;99.90
18139;DHT22;9195;53.176;9.486;2022-11-20T08:10:22;1.80;99.90
18139;DHT22;9195;53.176;9.486;2022-11-20T08:12:50;1.70;99.90
18139;DHT22;9195;53.176;9.486;2022-11-20T08:15:35;1.80;99.90
18139;DHT22;9195;53.176;9.486;2022-11-20T08:18:05;1.80;99.90
18139;DHT22;9195;53.176;9.486;2022-11-20T08:20:32;1.80;99.90
18139;DHT22;9195;53.176;9.486;2022-11-20T08:23:02;1.80;99.90
18139;DHT22;9195;53.176;9.486;2022-11-20T08:25:29;1.90;99.90
18139;DHT22;9195;53.176;9.486;2022-11-20T08:27:59;1.90;99.90
18139;DHT22;9195;53.176;9.486;2022-11-20T08:30:25;2.00;99.90
18139;DHT22;9195;53.176;9.486;2022-11-20T08:32:51;2.10;99.90
18139;DHT22;9195;53.176;9.486;2022-11-20T08:35:17;2.10;99.90
18139;DHT22;9195;53.176;9.486;2022-11-20T08:37:46;2.20;99.90
18139;DHT22;9195;53.176;9.486;2022-11-20T08:40:12;2.20;99.90
18139;DHT22;9195;53.176;9.486;2022-11-20T08:42:46;2.20;99.90
18139;DHT22;9195;53.176;9.486;2022-11-20T08:45:11;2.30;99.90
18139;DHT22;9195;53.176;9.486;2022-11-20T08:47:37;2.40;99.90
18139;DHT22;9195;53.176;9.486;2022-11-20T08:50:03;2.40;99.90
18139;DHT22;9195;53.176;9.486;2022-11-20T08:52:28;2.50;99.90
18139;DHT22;9195;53.176;9.486;2022-11-20T08:54:54;2.60;99.90
18139;DHT22;9195;53.176;9.486;2022-11-20T08:57:19;2.60;99.90
18139;DHT22;9195;53.176;9.486;2022-11-20T08:59:45;2.70;99.90
18139;DHT22;9195;53.176;9.486;2022-11-20T09:02:11;2.80;99.90
18139;DHT22;9195;53.176;9.486;2022-11-20T09:04:37;2.90;99.90
18139;DHT22;9195;53.176;9.486;2022-11-20T09:07:02;3.00;99.90
18139;DHT22;9195;53.176;9.486;2022-11-20T09:09:28;3.20;99.90
18139;DHT22;9195;53.176;9.486;2022-11-20T09:11:54;3.20;99.90
18139;DHT22;9195;53.176;9.486;2022-11-20T09:14:19;3.20;99.90
18139;DHT22;9195;53.176;9.486;2022-11-20T09:16:46;3.20;99.90
18139;DHT22;9195;53.176;9.486;2022-11-20T09:19:12;3.20;99.90
18139;DHT22;9195;53.176;9.486;2022-11-20T09:21:37;3.20;99.90
18139;DHT22;9195;53.176;9.486;2022-11-20T09:24:04;3.20;99.90
18139;DHT22;9195;53.176;9.486;2022-11-20T09:26:30;3.10;99.90
18139;DHT22;9195;53.176;9.486;2022-11-20T09:28:56;3.00;99.90
18139;DHT22;9195;53.176;9.486;2022-11-20T09:31:23;3.00;99.90
18139;DHT22;9195;53.176;9.486;2022-11-20T09:33:49;3.00;99.90
18139;DHT22;9195;53.176;9.486;2022-11-20T09:36:15;3.10;99.90
18139;DHT22;9195;53.176;9.486;2022-11-20T09:38:44;3.30;99.90
18139;DHT22;9195;53.176;9.486;2022-11-20T09:47:15;3.60;99.90
18139;DHT22;9195;53.176;9.486;2022-11-20T09:55:01;3.50;99.90
18139;DHT22;9195;53.176;9.486;2022-11-20T09:57:35;3.60;99.90
18139;DHT22;9195;53.176;9.486;2022-11-20T10:00:03;3.80;99.90
18139;DHT22;9195;53.176;9.486;2022-11-20T10:02:37;4.00;99.90
18139;DHT22;9195;53.176;9.486;2022-11-20T10:05:55;4.10;99.90
18139;DHT22;9195;53.176;9.486;2022-11-20T10:11:03;4.20;99.90
18139;DHT22;9195;53.176;9.486;2022-11-20T10:19:54;4.30;99.90
18139;DHT22;9195;53.176;9.486;2022-11-20T10:25:26;4.10;99.90
18139;DHT22;9195;53.176;9.486;2022-11-20T10:28:15;4.20;99.90
18139;DHT22;9195;53.176;9.486;2022-11-20T10:30:47;4.10;99.90
18139;DHT22;9195;53.176;9.486;2022-11-20T10:33:21;4.00;99.90
18139;DHT22;9195;53.176;9.486;2022-11-20T10:36:07;4.20;99.90
18139;DHT22;9195;53.176;9.486;2022-11-20T10:38:38;4.30;99.90
18139;DHT22;9195;53.176;9.486;2022-11-20T10:41:06;4.30;99.90
18139;DHT22;9195;53.176;9.486;2022-11-20T10:44:17;4.40;99.90
18139;DHT22;9195;53.176;9.486;2022-11-20T10:47:01;4.50;99.90
18139;DHT22;9195;53.176;9.486;2022-11-20T10:49:28;4.60;99.90
18139;DHT22;9195;53.176;9.486;2022-11-20T11:00:19;4.10;99.90
18139;DHT22;9195;53.176;9.486;2022-11-20T11:02:48;4.20;99.90
18139;DHT22;9195;53.176;9.486;2022-11-20T11:05:23;4.30;99.90
18139;DHT22;9195;53.176;9.486;2022-11-20T11:07:55;4.40;99.90
18139;DHT22;9195;53.176;9.486;2022-11-20T11:10:50;4.40;99.90
18139;DHT22;9195;53.176;9.486;2022-11-20T11:13:25;4.60;99.90
18139;DHT22;9195;53.176;9.486;2022-11-20T11:15:51;4.80;99.90
18139;DHT22;9195;53.176;9.486;2022-11-20T11:18:28;4.90;99.90
18139;DHT22;9195;53.176;9.486;2022-11-20T11:20:56;4.90;99.90
18139;DHT22;9195;53.176;9.486;2022-11-20T11:26:01;4.90;99.90
18139;DHT22;9195;53.176;9.486;2022-11-20T11:28:28;4.70;99.90
18139;DHT22;9195;53.176;9.486;2022-11-20T11:30:54;4.70;99.90
18139;DHT22;9195;53.176;9.486;2022-11-20T11:33:25;5.10;99.90
18139;DHT22;9195;53.176;9.486;2022-11-20T11:35:56;6.10;99.90
18139;DHT22;9195;53.176;9.486;2022-11-20T11:40:56;8.10;99.90
18139;DHT22;9195;53.176;9.486;2022-11-20T11:43:25;7.90;99.90
18139;DHT22;9195;53.176;9.486;2022-11-20T11:46:32;8.90;99.90
18139;DHT22;9195;53.176;9.486;2022-11-20T11:51:41;11.50;99.90
18139;DHT22;9195;53.176;9.486;2022-11-20T11:54:16;12.50;99.90
18139;DHT22;9195;53.176;9.486;2022-11-20T11:56:43;13.50;98.00
18139;DHT22;9195;53.176;9.486;2022-11-20T11:59:22;13.00;96.10
18139;DHT22;9195;53.176;9.486;2022-11-20T12:01:54;13.00;96.10
18139;DHT22;9195;53.176;9.486;2022-11-20T12:07:06;14.00;93.40
18139;DHT22;9195;53.176;9.486;2022-11-20T12:09:43;14.10;92.70
18139;DHT22;9195;53.176;9.486;2022-11-20T12:12:23;14.50;91.50
18139;DHT22;9195;53.176;9.486;2022-11-20T12:14:50;14.00;92.00
18139;DHT22;9195;53.176;9.486;2022-11-20T12:17:18;14.10;91.60
18139;DHT22;9195;53.176;9.486;2022-11-20T12:19:44;14.50;91.10
18139;DHT22;9195;53.176;9.486;2022-11-20T12:22:38;15.20;90.70
18139;DHT22;9195;53.176;9.486;2022-11-20T12:28:13;16.00;87.60
18139;DHT22;9195;53.176;9.486;2022-11-20T12:36:26;12.60;90.40
18139;DHT22;9195;53.176;9.486;2022-11-20T12:38:58;11.30;92.30
18139;DHT22;9195;53.176;9.486;2022-11-20T12:45:01;9.30;95.70
18139;DHT22;9195;53.176;9.486;2022-11-20T12:50:37;7.10;99.70
18139;DHT22;9195;53.176;9.486;2022-11-20T12:59:06;6.70;99.90
18139;DHT22;9195;53.176;9.486;2022-11-20T13:07:03;6.00;99.90
18139;DHT22;9195;53.176;9.486;2022-11-20T13:09:30;5.80;99.90
18139;DHT22;9195;53.176;9.486;2022-11-20T13:12:01;5.50;99.90
18139;DHT22;9195;53.176;9.486;2022-11-20T13:19:48;5.00;99.90
18139;DHT22;9195;53.176;9.486;2022-11-20T13:22:28;4.80;99.90
18139;DHT22;9195;53.176;9.486;2022-11-20T13:24:54;4.60;99.90
18139;DHT22;9195;53.176;9.486;2022-11-20T13:27:22;4.60;99.90
18139;DHT22;9195;53.176;9.486;2022-11-20T13:30:20;4.30;99.90
18139;DHT22;9195;53.176;9.486;2022-11-20T13:32:52;4.10;99.90
18139;DHT22;9195;53.176;9.486;2022-11-20T13:35:33;3.80;99.90
18139;DHT22;9195;53.176;9.486;2022-11-20T13:38:07;3.80;99.90
18139;DHT22;9195;53.176;9.486;2022-11-20T13:40:37;3.80;99.90
18139;DHT22;9195;53.176;9.486;2022-11-20T13:43:37;4.00;99.90
18139;DHT22;9195;53.176;9.486;2022-11-20T13:46:06;4.50;99.90
18139;DHT22;9195;53.176;9.486;2022-11-20T13:48:34;4.80;99.90
18139;DHT22;9195;53.176;9.486;2022-11-20T13:51:32;5.10;99.90
18139;DHT22;9195;53.176;9.486;2022-11-20T13:56:59;5.90;99.90
18139;DHT22;9195;53.176;9.486;2022-11-20T14:02:16;6.40;99.90
18139;DHT22;9195;53.176;9.486;2022-11-20T14:04:54;6.40;99.90
18139;DHT22;9195;53.176;9.486;2022-11-20T14:07:25;6.60;99.90
18139;DHT22;9195;53.176;9.486;2022-11-20T14:09:56;6.50;99.90
18139;DHT22;9195;53.176;9.486;2022-11-20T14:12:27;6.70;99.90
18139;DHT22;9195;53.176;9.486;2022-11-20T14:14:54;6.50;99.90
18139;DHT22;9195;53.176;9.486;2022-11-20T14:17:22;6.50;99.90
18139;DHT22;9195;53.176;9.486;2022-11-20T14:19:51;6.60;99.90
18139;DHT22;9195;53.176;9.486;2022-11-20T14:24:46;7.30;99.90
18139;DHT22;9195;53.176;9.486;2022-11-20T14:27:15;7.50;99.90
18139;DHT22;9195;53.176;9.486;2022-11-20T14:29:41;7.20;99.90
18139;DHT22;9195;53.176;9.486;2022-11-20T14:32:09;6.20;99.90
18139;DHT22;9195;53.176;9.486;2022-11-20T14:34:40;5.90;99.90
18139;DHT22;9195;53.176;9.486;2022-11-20T14:37:11;5.50;99.90
18139;DHT22;9195;53.176;9.486;2022-11-20T14:39:41;5.40;99.90
18139;DHT22;9195;53.176;9.486;2022-11-20T14:42:24;4.80;99.90
18139;DHT22;9195;53.176;9.486;2022-11-20T14:44:52;4.30;99.90
18139;DHT22;9195;53.176;9.486;2022-11-20T14:47:23;3.90;99.90
18139;DHT22;9195;53.176;9.486;2022-11-20T14:49:51;3.40;99.90
18139;DHT22;9195;53.176;9.486;2022-11-20T14:52:20;3.10;99.90
18139;DHT22;9195;53.176;9.486;2022-11-20T14:57:23;2.70;99.90
18139;DHT22;9195;53.176;9.486;2022-11-20T14:59:49;2.40;99.90
18139;DHT22;9195;53.176;9.486;2022-11-20T15:02:15;2.10;99.90
18139;DHT22;9195;53.176;9.486;2022-11-20T15:04:49;1.90;99.90
18139;DHT22;9195;53.176;9.486;2022-11-20T15:07:27;1.70;99.90
18139;DHT22;9195;53.176;9.486;2022-11-20T15:10:24;1.60;99.90
18139;DHT22;9195;53.176;9.486;2022-11-20T15:12:54;1.50;99.90
18139;DHT22;9195;53.176;9.486;2022-11-20T15:17:51;1.40;99.90
18139;DHT22;9195;53.176;9.486;2022-11-20T15:20:17;1.40;99.90
18139;DHT22;9195;53.176;9.486;2022-11-20T15:22:43;1.40;99.90
18139;DHT22;9195;53.176;9.486;2022-11-20T15:25:17;1.30;99.90
18139;DHT22;9195;53.176;9.486;2022-11-20T15:27:44;1.30;99.90
18139;DHT22;9195;53.176;9.486;2022-11-20T15:30:18;1.20;99.90
18139;DHT22;9195;53.176;9.486;2022-11-20T15:32:44;1.20;99.90
18139;DHT22;9195;53.176;9.486;2022-11-20T15:35:11;1.10;99.90
18139;DHT22;9195;53.176;9.486;2022-11-20T15:37:38;1.10;99.90
18139;DHT22;9195;53.176;9.486;2022-11-20T15:40:04;1.10;99.90
18139;DHT22;9195;53.176;9.486;2022-11-20T15:42:30;1.20;99.90
18139;DHT22;9195;53.176;9.486;2022-11-20T15:44:56;1.30;99.90
18139;DHT22;9195;53.176;9.486;2022-11-20T15:47:27;1.30;99.90
18139;DHT22;9195;53.176;9.486;2022-11-20T15:49:53;1.30;99.90
18139;DHT22;9195;53.176;9.486;2022-11-20T15:52:18;1.20;99.90
18139;DHT22;9195;53.176;9.486;2022-11-20T15:54:44;1.20;99.90
18139;DHT22;9195;53.176;9.486;2022-11-20T15:57:10;1.10;99.90
18139;DHT22;9195;53.176;9.486;2022-11-20T15:59:35;1.00;99.90
18139;DHT22;9195;53.176;9.486;2022-11-20T16:02:12;0.80;99.90
18139;DHT22;9195;53.176;9.486;2022-11-20T16:04:38;0.70;99.90
18139;DHT22;9195;53.176;9.486;2022-11-20T16:07:04;0.50;99.90
18139;DHT22;9195;53.176;9.486;2022-11-20T16:09:30;0.40;99.90
18139;DHT22;9195;53.176;9.486;2022-11-20T16:11:56;0.40;99.90
18139;DHT22;9195;53.176;9.486;2022-11-20T16:14:24;0.20;99.90
18139;DHT22;9195;53.176;9.486;2022-11-20T16:17:09;0.20;99.90
18139;DHT22;9195;53.176;9.486;2022-11-20T16:19:34;0.10;99.90
18139;DHT22;9195;53.176;9.486;2022-11-20T16:22:00;0.10;99.90
18139;DHT22;9195;53.176;9.486;2022-11-20T16:24:28;0.10;99.90
18139;DHT22;9195;53.176;9.486;2022-11-20T16:26:55;0.10;99.90
18139;DHT22;9195;53.176;9.486;2022-11-20T16:29:21;0.10;99.90
18139;DHT22;9195;53.176;9.486;2022-11-20T16:31:47;0.00;99.90
18139;DHT22;9195;53.176;9.486;2022-11-20T16:34:12;0.00;99.90
18139;DHT22;9195;53.176;9.486;2022-11-20T16:36:42;0.00;99.90
18139;DHT22;9195;53.176;9.486;2022-11-20T16:39:09;0.00;99.90
18139;DHT22;9195;53.176;9.486;2022-11-20T16:41:35;0.00;99.90
18139;DHT22;9195;53.176;9.486;2022-11-20T16:44:07;0.00;99.90
18139;DHT22;9195;53.176;9.486;2022-11-20T16:46:33;0.00;99.90
18139;DHT22;9195;53.176;9.486;2022-11-20T16:49:02;0.00;99.90
18139;DHT22;9195;53.176;9.486;2022-11-20T16:51:31;0.10;99.90
18139;DHT22;9195;53.176;9.486;2022-11-20T16:53:57;0.10;99.90
18139;DHT22;9195;53.176;9.486;2022-11-20T16:56:24;0.10;99.90
18139;DHT22;9195;53.176;9.486;2022-11-20T16:58:52;0.10;99.90
18139;DHT22;9195;53.176;9.486;2022-11-20T17:01:19;0.10;99.90
18139;DHT22;9195;53.176;9.486;2022-11-20T17:04:13;0.00;99.90
18139;DHT22;9195;53.176;9.486;2022-11-20T17:06:41;0.00;99.90
18139;DHT22;9195;53.176;9.486;2022-11-20T17:09:09;0.00;99.90
18139;DHT22;9195;53.176;9.486;2022-11-20T17:11:35;0.10;99.90
18139;DHT22;9195;53.176;9.486;2022-11-20T17:14:01;0.10;99.90
18139;DHT22;9195;53.176;9.486;2022-11-20T17:16:29;0.10;99.90
18139;DHT22;9195;53.176;9.486;2022-11-20T17:18:56;0.10;99.90
18139;DHT22;9195;53.176;9.486;2022-11-20T17:21:22;0.10;99.90
18139;DHT22;9195;53.176;9.486;2022-11-20T17:23:48;0.10;99.90
18139;DHT22;9195;53.176;9.486;2022-11-20T17:26:16;0.00;99.90
18139;DHT22;9195;53.176;9.486;2022-11-20T17:28:43;0.00;99.90
18139;DHT22;9195;53.176;9.486;2022-11-20T17:31:11;0.00;99.90
18139;DHT22;9195;53.176;9.486;2022-11-20T17:33:39;0.10;99.90
18139;DHT22;9195;53.176;9.486;2022-11-20T17:36:07;0.10;99.90
18139;DHT22;9195;53.176;9.486;2022-11-20T17:38:33;0.20;99.90
18139;DHT22;9195;53.176;9.486;2022-11-20T17:41:15;0.20;99.90